• Join FlightAware (Why Join?)
  • Login
  • US Flag 
07:30AM EDT


 

Airport Tracker/Info


-or-


 

Live Flight TrackerFlight Track Log ✈ SWA756 ✈ 22-Apr-2013 ✈ KDAL - KSAT

Flight Track Log - Related Links

Times and Time Zones

All times are in EDT time to prevent confusion due to time zone crossing. See the SWA756 flight status page for this flight to view local times or setup timezone preferences in your user account.

Time Position Orientation Groundspeed Altitude Reporting Facility
EDT Latitude Longitude Course Direction KTS MPH feet Rate Location/Type
08:50PM 32.8167 -96.8000 190° South 181 208 3,500  Level Dallas / Fort Worth TRACON
08:51PM 32.7833 -96.7500 128° Southeast 222 255 6,000 2,340 Climbing Dallas / Fort Worth TRACON
08:52PM 32.7333 -96.6833 132° Southeast 244 281 8,200 2,820 Climbing Dallas / Fort Worth TRACON
08:53PM 32.6833 -96.6333 140° Southeast 267 307 11,800 2,940 Climbing Dallas / Fort Worth TRACON
08:54PM 32.6247 -96.6906 219° Southwest 252 290 14,300 3,240 Climbing Fort Worth Center
08:55PM 32.5519 -96.7700 223° Southwest 300 345 18,400 3,600 Climbing Fort Worth Center
08:56PM 32.3825 -97.0862 190° South  Level Estimated
08:56PM 32.4750 -96.8422 218° Southwest 343 395 21,600  Level Fort Worth Center
08:57PM 32.3647 -96.8747 194° South 383 441 24,700 3,000 Climbing Fort Worth Center
08:58PM 32.2519 -96.9025 192° South 408 470 27,600 3,000 Climbing Fort Worth Center
08:59PM 32.1353 -96.9325 192° South 420 483 30,700 2,880 Climbing Fort Worth Center
09:00PM 32.0267 -96.9625 193° South 419 482 33,400 1,620 Climbing Fort Worth Center
09:01PM 31.9161 -96.9925 193° South 411 473 34,000 240 Climbing Fort Worth Center
09:03PM 31.7656 -97.0247 190° South 420 483 34,000  Level Houston Center
09:04PM 31.6500 -97.0533 192° South 421 484 34,000  Level Houston Center
09:05PM 31.5333 -97.0825 192° South 421 484 34,000  Level Houston Center
09:06PM 31.4206 -97.1250 198° South 422 486 34,000  Level Houston Center
09:07PM 31.3081 -97.1700 199° South 423 487 34,000  Level Houston Center
09:08PM 31.1778 -97.2217 199° South 421 484 34,000  Level Houston Center
09:09PM 31.0664 -97.2653 199° South 420 483 34,000  Level Houston Center
09:10PM 30.9542 -97.3078 198° South 425 489 34,000  Level Houston Center
09:11PM 30.8447 -97.3503 198° South 429 494 34,000  Level Houston Center
09:12PM 30.7342 -97.3925 198° South 421 484 34,000 -360 Level Houston Center
09:13PM 30.6244 -97.4356 199° South 415 478 33,300 -2,160 Descending Houston Center
09:14PM 30.4958 -97.4867 199° South 414 476 29,600 -3,300 Descending Houston Center
09:15PM 30.3836 -97.5283 198° South 417 480 26,600 -2,820 Descending Houston Center
09:16PM 30.2856 -97.5947 210° Southwest 406 467 23,900 -2,640 Descending Houston Center
09:17PM 30.1908 -97.6597 211° Southwest 394 453 21,300 -2,580 Descending Houston Center
09:18PM 30.1214 -97.7078 211° Southwest 384 442 19,400 -2,460 Descending Houston Center
09:18PM 30.0994 -97.7225 210° Southwest 381 438 18,800 -2,520 Descending Houston Center
09:19PM 30.0064 -97.7872 211° Southwest 368 423 16,100 -2,700 Descending Houston Center
09:20PM 29.9342 -97.8378 211° Southwest 359 413 13,900 -1,920 Descending Houston Center
09:21PM 29.8794 -97.9028 226° Southwest 338 389 12,900 -1,140 Descending Houston Center
09:21PM 29.8636 -97.9408 244° Southwest 338 389 12,500 -1,020 Descending Houston Center
09:22PM 29.8422 -97.9942 245° Southwest 336 387 12,000 -900 Descending Houston Center
09:22PM 29.8228 -98.0389 243° Southwest 340 391 11,600 -1,020 Descending Houston Center
09:23PM 29.7925 -98.1136 245° Southwest 340 391 10,800 -1,200 Descending Houston Center
09:23PM 29.7789 -98.1431 242° Southwest 336 387 10,400 -900 Descending Houston Center
09:24PM 29.7561 -98.1950 243° Southwest 305 351 10,000 -900 Descending Houston Center
09:24PM 29.7433 -98.2267 245° Southwest 294 338 9,500 -1,140 Descending Houston Center
09:25PM 29.7236 -98.2761 245° Southwest 271 312 8,900 -1,020 Descending Houston Center
09:25PM 29.7097 -98.3053 241° Southwest 277 319 8,500 -1,380 Descending Houston Center
09:26PM 29.6975 -98.3564 255° West 272 313 7,500 -1,680 Descending Houston Center
09:26PM 29.6894 -98.3950 257° West 271 312 6,800 -1,380 Descending Houston Center
09:27PM 29.6853 -98.4517 265° West 263 303 6,000 -1,620 Descending Houston Center
09:27PM 29.6836 -98.4775 266° West 261 300 5,200 -1,560 Descending Houston Center
09:28PM 29.6856 -98.5453 272° West 272 313 4,300 -1,020 Descending Houston Center
09:28PM 29.6850 -98.5625 268° West 267 307 4,200 -600 Descending Houston Center
09:29PM 29.6583 -98.5919 224° Southwest 198 228 3,800 -600 Descending Houston Center
09:29PM 29.6411 -98.5928 182° South 182 209 3,600 -780 Descending Houston Center
09:30PM 29.6219 -98.5842 159° South 130 150 3,100 -1,020 Descending Houston Center
09:31PM 29.6067 -98.5683 138° Southeast 146 168 2,600 -840 Descending Houston Center
09:31PM 29.5936 -98.5514 132° Southeast 125 144 2,300 -540 Descending Houston Center
09:32PM 29.5839 -98.5369 128° Southeast 131 151 2,100 -600 Descending Houston Center
09:32PM 29.5744 -98.5250 132° Southeast 118 136 1,800 -720 Descending Houston Center
09:33PM 29.5600 -98.5075 133° Southeast 120 138 1,400 -660 Descending Houston Center
09:33PM 29.5533 -98.4986 131° Southeast 120 138 1,200 -600 Descending Houston Center
09:34PM 29.5419 -98.4828 130° Southeast 120 138 800 -600 Descending Houston Center
09:36PM 29.5340 -98.4691 172° South  Level Estimated
09:43PM 29.5333 -98.4667 16° North  Level FlightAware Approximate